KAUM/AUM METAR and TAF weather

Enter ICAO airport designator
Station Type Date Time Source
KAUM METAR 2024/04/18 06:55 UTC NOAA

KAUM 180655Z AUTO 00000KT 10SM SCT075 07/06 A2998 RMK AO2


Station Type Date Time Source
KAUM Decoded METAR 2024/04/18 06:55 UTC NOAA

Austin Municipal, MN, United States (KAUM) 43-40N 092-56W
Apr 18, 2024 - 02:55 AM EDT / 2024.04.18 0655 UTC
Wind: Calm:0
Visibility: 10 mile(s):0
Sky conditions: partly cloudy
Temperature: 44 F (7 C)
Dew Point: 42 F (6 C)
Relative Humidity: 93%
Pressure (altimeter): 29.98 in. Hg (1015 hPa)
ob: KAUM 180655Z AUTO 00000KT 10SM SCT075 07/06 A2998 RMK AO2
cycle: 7

Station Type Date Time Source
KAUM TAF UTC NOAA

Error!

Example: see airport list